createdAt,value
2018-09-09T00:01:06.216Z,88.30
2018-09-09T00:03:34.931Z,88.50
2018-09-09T00:06:03.632Z,88.60
2018-09-09T00:08:32.506Z,88.80
2018-09-09T00:11:01.168Z,89.10
2018-09-09T00:13:29.810Z,89.20
2018-09-09T00:15:59.120Z,89.10
2018-09-09T00:18:27.700Z,89.10
2018-09-09T00:20:59.888Z,88.90
2018-09-09T00:23:28.600Z,88.90
2018-09-09T00:25:57.280Z,88.90
2018-09-09T00:28:28.885Z,89.20
2018-09-09T00:30:57.589Z,89.20
2018-09-09T00:33:26.358Z,89.30
2018-09-09T00:35:55.253Z,89.30
2018-09-09T00:38:23.933Z,89.50
2018-09-09T00:40:52.744Z,89.50
2018-09-09T00:43:21.564Z,89.50
2018-09-09T00:45:50.469Z,89.20
2018-09-09T00:48:19.188Z,89.20
2018-09-09T00:50:52.961Z,89.20
2018-09-09T00:53:26.888Z,89.40
2018-09-09T00:55:55.958Z,89.60
2018-09-09T00:58:24.933Z,89.80
2018-09-09T01:00:58.885Z,90.00
2018-09-09T01:03:27.569Z,90.00
2018-09-09T01:05:56.156Z,90.00
2018-09-09T01:08:25.224Z,89.90
2018-09-09T01:10:53.873Z,90.00
2018-09-09T01:13:22.616Z,89.90
2018-09-09T01:15:51.534Z,90.00
2018-09-09T01:18:20.165Z,90.00
2018-09-09T01:20:48.816Z,90.10
2018-09-09T01:23:17.847Z,90.30
2018-09-09T01:25:47.190Z,90.10
2018-09-09T01:28:16.265Z,90.10
2018-09-09T01:30:52.896Z,90.30
2018-09-09T01:33:21.842Z,90.10
2018-09-09T01:35:50.503Z,90.10
2018-09-09T01:38:19.222Z,90.10
2018-09-09T01:40:47.904Z,90.20
2018-09-09T01:43:16.632Z,90.30
2018-09-09T01:45:45.268Z,90.50
2018-09-09T01:48:13.974Z,90.60
2018-09-09T01:50:42.658Z,90.70
2018-09-09T01:53:11.466Z,90.80
2018-09-09T01:55:40.147Z,90.90
2018-09-09T01:58:08.882Z,90.90
2018-09-09T02:00:37.543Z,90.90
2018-09-09T02:03:06.291Z,90.90
2018-09-09T02:05:35.180Z,90.90
2018-09-09T02:08:03.894Z,90.60
2018-09-09T02:10:32.919Z,90.60
2018-09-09T02:13:01.645Z,90.60
2018-09-09T02:15:30.365Z,90.80
2018-09-09T02:17:59.032Z,91.00
2018-09-09T02:20:28.285Z,91.10
2018-09-09T02:22:57.062Z,91.10
2018-09-09T02:25:25.706Z,91.20
2018-09-09T02:27:54.361Z,91.30
2018-09-09T02:30:23.037Z,91.50
2018-09-09T02:32:51.790Z,91.60
2018-09-09T02:35:20.788Z,92.00
2018-09-09T02:37:49.531Z,92.10
2018-09-09T02:40:18.298Z,92.00
2018-09-09T02:42:46.986Z,91.90
2018-09-09T02:45:15.678Z,91.70
2018-09-09T02:47:44.397Z,91.50
2018-09-09T02:50:13.432Z,91.50
2018-09-09T02:52:42.205Z,91.50
2018-09-09T02:55:10.920Z,91.60
2018-09-09T02:57:39.863Z,91.70
2018-09-09T03:00:08.786Z,91.80
2018-09-09T03:02:37.469Z,92.00
2018-09-09T03:05:06.331Z,92.00
2018-09-09T03:07:35.056Z,91.80
2018-09-09T03:10:03.745Z,91.90
2018-09-09T03:12:32.493Z,92.10
2018-09-09T03:15:01.150Z,92.40
2018-09-09T03:17:29.868Z,92.40
2018-09-09T03:19:58.733Z,92.30
2018-09-09T03:22:27.471Z,92.20
2018-09-09T03:24:56.160Z,92.20
2018-09-09T03:27:25.018Z,92.40
2018-09-09T03:29:53.670Z,92.60
2018-09-09T03:32:22.386Z,92.90
2018-09-09T03:34:51.116Z,93.10
2018-09-09T03:37:19.807Z,93.30
2018-09-09T03:39:48.528Z,93.40
2018-09-09T03:42:17.251Z,93.40
2018-09-09T03:44:45.969Z,93.40
2018-09-09T03:47:14.929Z,93.30
2018-09-09T03:49:43.693Z,93.20
2018-09-09T03:52:12.395Z,93.20
2018-09-09T03:54:41.109Z,93.00
2018-09-09T03:57:09.845Z,92.80
2018-09-09T03:59:38.825Z,93.00
2018-09-09T04:02:07.566Z,92.90
2018-09-09T04:04:36.515Z,92.80
2018-09-09T04:07:05.737Z,92.80
2018-09-09T04:09:34.486Z,92.90
2018-09-09T04:12:03.180Z,92.80
2018-09-09T04:14:31.875Z,93.00
2018-09-09T04:17:00.614Z,93.30
2018-09-09T04:19:29.224Z,93.40
2018-09-09T04:21:57.954Z,93.30
2018-09-09T04:24:26.627Z,93.30
2018-09-09T04:26:55.301Z,93.30
2018-09-09T04:29:24.047Z,93.20
2018-09-09T04:31:52.707Z,93.00
2018-09-09T04:34:21.357Z,93.00
2018-09-09T04:36:50.062Z,93.10
2018-09-09T04:39:18.741Z,93.40
2018-09-09T04:41:47.411Z,93.50
2018-09-09T04:44:16.386Z,93.60
2018-09-09T04:46:45.074Z,93.40
2018-09-09T04:49:13.791Z,93.40
2018-09-09T04:51:42.471Z,93.50
2018-09-09T04:54:11.437Z,93.40
2018-09-09T04:56:40.137Z,93.20
2018-09-09T04:59:08.811Z,92.80
2018-09-09T05:01:37.527Z,92.70
2018-09-09T05:04:06.250Z,92.80
2018-09-09T05:06:34.933Z,92.90
2018-09-09T05:09:04.144Z,92.90
2018-09-09T05:11:32.893Z,92.90
2018-09-09T05:14:01.578Z,92.70
2018-09-09T05:16:30.260Z,92.60
2018-09-09T05:18:58.934Z,92.60
2018-09-09T05:21:27.603Z,92.90
2018-09-09T05:23:56.650Z,93.00
2018-09-09T05:26:25.382Z,93.00
2018-09-09T05:28:54.189Z,93.00
2018-09-09T05:31:22.921Z,93.00
2018-09-09T05:33:51.699Z,93.10
2018-09-09T05:36:20.425Z,93.20
2018-09-09T05:38:49.113Z,93.50
2018-09-09T05:41:17.946Z,93.30
2018-09-09T05:43:46.916Z,93.30
2018-09-09T05:46:15.589Z,93.30
2018-09-09T05:48:44.433Z,93.20
2018-09-09T05:51:13.153Z,93.10
2018-09-09T05:53:41.828Z,93.10
2018-09-09T05:56:10.530Z,93.10
2018-09-09T05:58:39.251Z,93.00
2018-09-09T06:01:07.987Z,92.90
2018-09-09T06:03:36.750Z,92.50
2018-09-09T06:06:05.475Z,92.00
2018-09-09T06:08:34.191Z,91.50
2018-09-09T06:11:03.127Z,91.20
2018-09-09T06:13:31.892Z,91.10
2018-09-09T06:16:00.622Z,90.90
2018-09-09T06:18:29.315Z,90.80
2018-09-09T06:20:57.993Z,90.80
2018-09-09T06:23:26.660Z,90.80
2018-09-09T06:25:55.351Z,90.90
2018-09-09T06:28:24.133Z,90.80
2018-09-09T06:30:52.786Z,90.60
2018-09-09T06:33:21.557Z,90.60
2018-09-09T06:35:50.282Z,90.50
2018-09-09T06:38:18.962Z,90.30
2018-09-09T06:40:47.651Z,90.00
2018-09-09T06:43:16.514Z,89.70
2018-09-09T06:45:45.309Z,89.50
2018-09-09T06:48:13.958Z,89.30
2018-09-09T06:50:42.695Z,88.70
2018-09-09T06:53:11.402Z,88.40
2018-09-09T06:55:40.170Z,88.00
2018-09-09T06:58:09.341Z,86.60
2018-09-09T07:00:38.105Z,86.60
2018-09-09T07:03:07.818Z,86.80
2018-09-09T07:05:36.861Z,86.90
2018-09-09T07:08:05.791Z,86.00
2018-09-09T07:10:34.914Z,85.50
2018-09-09T07:13:12.891Z,84.80
2018-09-09T07:15:46.330Z,84.50
2018-09-09T07:18:16.941Z,83.60
2018-09-09T07:20:46.367Z,83.00
2018-09-09T07:23:15.030Z,82.80
2018-09-09T07:25:43.758Z,82.50
2018-09-09T07:28:12.493Z,82.30
2018-09-09T07:30:41.237Z,82.10
2018-09-09T07:33:09.969Z,81.20
2018-09-09T07:35:38.689Z,80.50
2018-09-09T07:38:07.366Z,80.60
2018-09-09T07:40:36.065Z,80.50
2018-09-09T07:43:04.776Z,79.50
2018-09-09T07:45:33.456Z,78.70
2018-09-09T07:48:02.301Z,77.40
2018-09-09T07:50:31.036Z,76.60
2018-09-09T07:52:59.681Z,75.60
2018-09-09T07:55:28.436Z,73.70
2018-09-09T07:57:57.139Z,74.00
2018-09-09T08:00:27.567Z,73.20
2018-09-09T08:02:56.488Z,73.50
2018-09-09T08:05:25.220Z,74.40
2018-09-09T08:07:54.391Z,72.80
2018-09-09T08:10:23.616Z,72.60
2018-09-09T08:12:52.935Z,72.00
2018-09-09T08:15:21.952Z,72.30
2018-09-09T08:17:51.518Z,72.30
2018-09-09T08:20:20.222Z,70.70
2018-09-09T08:22:49.071Z,69.90
2018-09-09T08:25:17.701Z,70.00
2018-09-09T08:27:46.554Z,69.40
2018-09-09T08:30:15.424Z,67.30
2018-09-09T08:32:44.275Z,68.40
2018-09-09T08:35:12.970Z,68.00
2018-09-09T08:37:41.908Z,67.30
2018-09-09T08:40:10.634Z,66.00
2018-09-09T08:42:39.483Z,65.10
2018-09-09T08:45:08.629Z,64.20
2018-09-09T08:47:37.506Z,63.50
2018-09-09T08:50:06.746Z,64.20
2018-09-09T08:52:37.023Z,64.00
2018-09-09T08:55:06.155Z,63.10
2018-09-09T08:57:35.058Z,62.20
2018-09-09T09:00:03.912Z,62.00
2018-09-09T09:02:32.816Z,63.90
2018-09-09T09:05:02.032Z,61.90
2018-09-09T09:07:31.917Z,63.10
2018-09-09T09:10:00.541Z,63.80
2018-09-09T09:12:31.355Z,61.40
2018-09-09T09:15:00.362Z,62.40
2018-09-09T09:17:29.372Z,62.40
2018-09-09T09:19:58.329Z,61.30
2018-09-09T09:22:27.990Z,60.60
2018-09-09T09:24:56.692Z,60.50
2018-09-09T09:27:26.289Z,60.90
2018-09-09T09:29:57.524Z,61.50
2018-09-09T09:32:26.738Z,60.20
2018-09-09T09:34:56.617Z,60.50
2018-09-09T09:37:27.420Z,58.70
2018-09-09T09:40:02.915Z,57.30
2018-09-09T09:42:32.221Z,57.40
2018-09-09T09:45:00.882Z,56.30
2018-09-09T09:47:29.608Z,57.70
2018-09-09T09:50:01.965Z,56.00
2018-09-09T09:52:30.713Z,55.10
2018-09-09T09:55:01.230Z,56.60
2018-09-09T09:57:29.958Z,58.00
2018-09-09T09:59:58.634Z,58.60
2018-09-09T10:02:27.346Z,58.50
2018-09-09T10:04:56.077Z,58.70
2018-09-09T10:07:24.865Z,57.80
2018-09-09T10:09:54.071Z,58.20
2018-09-09T10:12:22.766Z,58.90
2018-09-09T10:14:51.450Z,57.80
2018-09-09T10:17:20.148Z,57.90
2018-09-09T10:19:49.416Z,59.20
2018-09-09T10:22:18.195Z,58.50
2018-09-09T10:24:47.508Z,55.10
2018-09-09T10:27:16.430Z,54.60
2018-09-09T10:29:45.786Z,56.20
2018-09-09T10:32:14.538Z,56.70
2018-09-09T10:34:44.386Z,54.40
2018-09-09T10:37:13.777Z,56.30
2018-09-09T10:39:42.505Z,55.30
2018-09-09T10:42:11.356Z,56.50
2018-09-09T10:44:40.099Z,55.30
2018-09-09T10:47:08.815Z,57.40
2018-09-09T10:49:37.496Z,55.70
2018-09-09T10:52:06.199Z,55.60
2018-09-09T10:54:40.765Z,55.50
2018-09-09T10:57:10.593Z,55.10
2018-09-09T10:59:39.988Z,54.00
2018-09-09T11:02:09.711Z,52.70
2018-09-09T11:04:38.578Z,53.10
2018-09-09T11:07:09.514Z,51.90
2018-09-09T11:09:38.935Z,52.60
2018-09-09T11:12:08.344Z,52.80
2018-09-09T11:14:37.039Z,52.00
2018-09-09T11:17:05.743Z,51.50
2018-09-09T11:19:34.539Z,51.00
2018-09-09T11:22:03.236Z,51.70
2018-09-09T11:24:31.921Z,52.20
2018-09-09T11:27:00.597Z,51.90
2018-09-09T11:29:29.341Z,50.90
2018-09-09T11:31:58.022Z,49.60
2018-09-09T11:34:26.718Z,48.60
2018-09-09T11:36:55.489Z,49.10
2018-09-09T11:39:24.229Z,50.70
2018-09-09T11:41:52.941Z,50.50
2018-09-09T11:44:21.641Z,49.30
2018-09-09T11:46:50.353Z,47.70
2018-09-09T11:49:19.069Z,47.90
2018-09-09T11:51:50.133Z,46.70
2018-09-09T11:54:18.878Z,47.90
2018-09-09T11:56:47.641Z,49.10
2018-09-09T11:59:16.607Z,49.00
2018-09-09T12:01:45.462Z,49.10
2018-09-09T12:04:14.617Z,50.20
2018-09-09T12:06:43.358Z,47.60
2018-09-09T12:09:12.517Z,47.80
2018-09-09T12:11:41.714Z,48.80
2018-09-09T12:14:10.334Z,47.90
2018-09-09T12:16:39.097Z,48.10
2018-09-09T12:19:07.805Z,47.90
2018-09-09T12:31:19.848Z,47.80
2018-09-09T12:33:48.501Z,46.50
2018-09-09T12:36:22.311Z,47.70
2018-09-09T12:38:51.067Z,47.70
2018-09-09T12:41:19.872Z,48.80
2018-09-09T12:43:53.879Z,49.60
2018-09-09T12:46:27.677Z,50.20
2018-09-09T12:49:01.154Z,47.70
2018-09-09T12:51:30.291Z,48.20
2018-09-09T12:53:59.461Z,48.90
2018-09-09T12:56:28.257Z,46.60
2018-09-09T12:58:58.670Z,46.00
2018-09-09T13:01:28.285Z,48.20
2018-09-09T13:03:57.287Z,45.30
2018-09-09T13:06:26.447Z,45.40
2018-09-09T13:09:01.913Z,45.70
2018-09-09T13:11:31.089Z,46.20
2018-09-09T13:14:00.010Z,47.30
2018-09-09T13:16:28.702Z,47.00
2018-09-09T13:18:57.408Z,45.40
2018-09-09T13:21:26.087Z,44.70
2018-09-09T13:23:55.476Z,42.60
2018-09-09T13:26:24.220Z,42.10
2018-09-09T13:28:53.278Z,43.40
2018-09-09T13:31:23.433Z,42.90
2018-09-09T13:33:52.192Z,43.10
2018-09-09T13:36:20.940Z,41.60
2018-09-09T13:38:50.514Z,42.10
2018-09-09T13:41:19.241Z,42.80
2018-09-09T13:43:48.226Z,43.10
2018-09-09T13:46:16.954Z,42.90
2018-09-09T13:48:46.316Z,42.90
2018-09-09T13:51:16.926Z,42.40
2018-09-09T13:53:48.805Z,41.10
2018-09-09T13:56:17.534Z,41.00
2018-09-09T13:58:46.480Z,40.50
2018-09-09T14:01:16.322Z,40.60
2018-09-09T14:03:45.050Z,40.80
2018-09-09T14:06:14.609Z,41.10
2018-09-09T14:08:43.329Z,40.50
2018-09-09T14:11:12.829Z,40.10
2018-09-09T14:13:41.909Z,40.20
2018-09-09T14:16:10.821Z,41.80
2018-09-09T14:18:39.829Z,39.00
2018-09-09T14:21:09.165Z,39.40
2018-09-09T14:23:40.846Z,36.40
2018-09-09T14:26:09.845Z,37.20
2018-09-09T14:28:39.838Z,39.20
2018-09-09T14:31:08.612Z,39.70
2018-09-09T14:33:37.767Z,40.50
2018-09-09T14:36:06.877Z,41.00
2018-09-09T14:38:35.625Z,41.80
2018-09-09T14:41:04.335Z,41.90
2018-09-09T14:43:32.977Z,42.30
2018-09-09T14:46:02.230Z,40.90
2018-09-09T14:48:31.737Z,39.70
2018-09-09T14:51:01.076Z,40.50
2018-09-09T14:53:30.141Z,38.20
2018-09-09T14:55:58.875Z,38.00
2018-09-09T14:58:27.875Z,38.30
2018-09-09T15:00:56.622Z,40.20
2018-09-09T15:03:25.608Z,39.60
2018-09-09T15:05:54.290Z,38.50
2018-09-09T15:08:23.046Z,38.10
2018-09-09T15:10:51.777Z,37.70
2018-09-09T15:13:20.510Z,38.00
2018-09-09T15:15:49.881Z,37.60
2018-09-09T15:18:18.695Z,37.70
2018-09-09T15:20:47.399Z,36.50
2018-09-09T15:23:16.091Z,37.00
2018-09-09T15:25:44.847Z,38.40
2018-09-09T15:28:13.869Z,37.00
2018-09-09T15:30:42.576Z,36.60
2018-09-09T15:33:11.278Z,36.90
2018-09-09T15:35:39.941Z,37.10
2018-09-09T15:38:08.649Z,36.30
2018-09-09T15:40:37.383Z,36.80
2018-09-09T15:43:06.134Z,37.60
2018-09-09T15:45:34.960Z,36.50
2018-09-09T15:48:04.075Z,36.30
2018-09-09T15:50:32.758Z,36.60
2018-09-09T15:53:01.534Z,36.60
2018-09-09T15:55:30.319Z,37.30
2018-09-09T15:57:59.092Z,36.40
2018-09-09T16:00:28.022Z,35.80
2018-09-09T16:02:56.761Z,35.40
2018-09-09T16:05:25.455Z,35.40
2018-09-09T16:07:54.174Z,36.00
2018-09-09T16:10:27.269Z,35.90
2018-09-09T16:12:55.949Z,34.80
2018-09-09T16:15:25.042Z,35.20
2018-09-09T16:17:53.728Z,34.50
2018-09-09T16:20:22.717Z,35.40
2018-09-09T16:22:51.661Z,36.80
2018-09-09T16:25:20.417Z,36.90
2018-09-09T16:27:49.094Z,36.10
2018-09-09T16:30:17.822Z,35.30
2018-09-09T16:32:46.526Z,36.40
2018-09-09T16:35:15.299Z,36.50
2018-09-09T16:37:44.029Z,36.60
2018-09-09T16:40:12.723Z,37.10
2018-09-09T16:42:42.229Z,37.20
2018-09-09T16:45:11.017Z,37.30
2018-09-09T16:47:39.743Z,37.20
2018-09-09T16:50:08.448Z,36.80
2018-09-09T16:52:38.644Z,39.20
2018-09-09T16:55:07.855Z,39.60
2018-09-09T16:57:36.648Z,40.80
2018-09-09T17:00:06.169Z,42.80
2018-09-09T17:02:36.321Z,43.40
2018-09-09T17:05:05.014Z,44.70
2018-09-09T17:07:33.851Z,46.20
2018-09-09T17:10:04.074Z,47.30
2018-09-09T17:12:32.817Z,47.70
2018-09-09T17:15:01.936Z,47.10
2018-09-09T17:17:30.859Z,47.30
2018-09-09T17:19:59.771Z,47.60
2018-09-09T17:22:28.470Z,48.20
2018-09-09T17:24:57.154Z,49.00
2018-09-09T17:27:25.854Z,49.70
2018-09-09T17:29:54.558Z,50.20
2018-09-09T17:32:23.402Z,50.80
2018-09-09T17:34:52.092Z,51.20
2018-09-09T17:37:20.824Z,53.20
2018-09-09T17:39:49.522Z,53.40
2018-09-09T17:42:18.944Z,53.20
2018-09-09T17:44:47.625Z,53.40
2018-09-09T17:47:16.337Z,53.30
2018-09-09T17:49:45.087Z,53.90
2018-09-09T17:52:13.808Z,54.50
2018-09-09T17:54:42.471Z,55.20
2018-09-09T17:57:11.199Z,55.30
2018-09-09T17:59:40.249Z,55.80
2018-09-09T18:02:09.335Z,56.10
2018-09-09T18:04:38.021Z,57.20
2018-09-09T18:07:06.778Z,57.40
2018-09-09T18:09:35.481Z,57.30
2018-09-09T18:12:04.333Z,58.40
2018-09-09T18:14:33.094Z,59.10
2018-09-09T18:17:01.825Z,58.80
2018-09-09T18:19:30.506Z,59.80
2018-09-09T18:21:59.173Z,60.80
2018-09-09T18:24:27.858Z,60.80
2018-09-09T18:26:56.572Z,60.70
2018-09-09T18:29:25.433Z,61.20
2018-09-09T18:31:54.136Z,62.10
2018-09-09T18:34:22.947Z,62.90
2018-09-09T18:36:51.622Z,63.90
2018-09-09T18:39:20.367Z,63.90
2018-09-09T18:41:49.133Z,64.20
2018-09-09T18:44:18.056Z,64.30
2018-09-09T18:46:46.734Z,64.40
2018-09-09T18:49:16.065Z,64.80
2018-09-09T18:51:44.779Z,65.20
2018-09-09T18:54:13.478Z,65.60
2018-09-09T18:56:42.161Z,66.50
2018-09-09T18:59:11.049Z,67.20
2018-09-09T19:01:39.820Z,67.60
2018-09-09T19:04:08.599Z,67.80
2018-09-09T19:06:37.255Z,67.80
2018-09-09T19:09:07.318Z,67.60
2018-09-09T19:11:36.074Z,67.90
2018-09-09T19:14:05.256Z,68.20
2018-09-09T19:16:33.932Z,68.20
2018-09-09T19:19:03.457Z,68.60
2018-09-09T19:21:32.162Z,68.80
2018-09-09T19:24:02.142Z,69.10
2018-09-09T19:26:31.866Z,69.40
2018-09-09T19:29:00.650Z,69.80
2018-09-09T19:31:29.325Z,70.20
2018-09-09T19:33:58.053Z,70.70
2018-09-09T19:36:26.819Z,71.20
2018-09-09T19:38:55.518Z,71.20
2018-09-09T19:41:25.799Z,71.40
2018-09-09T19:43:54.718Z,71.70
2018-09-09T19:46:23.926Z,72.00
2018-09-09T19:48:53.165Z,72.40
2018-09-09T19:51:21.971Z,72.30
2018-09-09T19:53:50.752Z,72.50
2018-09-09T19:56:19.439Z,72.60
2018-09-09T19:58:48.930Z,72.90
2018-09-09T20:01:17.820Z,73.50
2018-09-09T20:03:46.724Z,73.70
2018-09-09T20:06:15.421Z,73.70
2018-09-09T20:08:44.659Z,73.80
2018-09-09T20:11:13.600Z,73.90
2018-09-09T20:13:49.088Z,73.80
2018-09-09T20:16:18.828Z,74.00
2018-09-09T20:18:47.797Z,74.00
2018-09-09T20:21:16.483Z,74.30
2018-09-09T20:23:45.220Z,74.50
2018-09-09T20:26:13.923Z,75.00
2018-09-09T20:28:42.622Z,75.30
2018-09-09T20:31:11.384Z,75.30
2018-09-09T20:33:41.197Z,75.60
2018-09-09T20:36:10.210Z,75.70
2018-09-09T20:38:39.762Z,76.30
2018-09-09T20:41:08.515Z,76.30
2018-09-09T20:43:37.803Z,76.50
2018-09-09T20:46:06.682Z,77.00
2018-09-09T20:48:35.771Z,77.10
2018-09-09T20:51:04.641Z,77.10
2018-09-09T20:53:33.309Z,77.30
2018-09-09T20:56:02.053Z,77.30
2018-09-09T20:58:30.811Z,77.30
2018-09-09T21:00:59.538Z,77.20
2018-09-09T21:03:28.924Z,77.60
2018-09-09T21:05:57.601Z,77.90
2018-09-09T21:08:26.298Z,78.00
2018-09-09T21:10:56.247Z,78.20
2018-09-09T21:13:24.986Z,78.30
2018-09-09T21:15:53.833Z,78.50
2018-09-09T21:18:23.438Z,78.60
2018-09-09T21:20:52.157Z,78.80
2018-09-09T21:23:20.906Z,79.20
2018-09-09T21:25:49.651Z,79.10
2018-09-09T21:28:18.689Z,79.40
2018-09-09T21:30:47.414Z,79.60
2018-09-09T21:33:16.396Z,79.70
2018-09-09T21:35:45.106Z,79.80
2018-09-09T21:38:13.787Z,79.80
2018-09-09T21:40:42.484Z,79.90
2018-09-09T21:43:11.427Z,79.90
2018-09-09T21:45:40.102Z,80.20
2018-09-09T21:48:08.743Z,80.50
2018-09-09T21:50:37.709Z,80.30
2018-09-09T21:53:06.369Z,80.50
2018-09-09T21:55:35.079Z,80.70
2018-09-09T21:58:03.824Z,80.90
2018-09-09T22:00:32.674Z,81.00
2018-09-09T22:03:01.450Z,81.10
2018-09-09T22:05:30.186Z,81.40
2018-09-09T22:07:58.896Z,81.90
2018-09-09T22:10:27.602Z,81.70
2018-09-09T22:12:56.546Z,82.20
2018-09-09T22:15:25.242Z,82.30
2018-09-09T22:17:54.223Z,82.30
2018-09-09T22:20:22.945Z,82.40
2018-09-09T22:22:51.692Z,82.40
2018-09-09T22:25:20.506Z,82.50
2018-09-09T22:27:49.198Z,82.80
2018-09-09T22:30:17.889Z,83.00
2018-09-09T22:32:46.638Z,83.00
2018-09-09T22:35:15.711Z,83.20
2018-09-09T22:37:44.515Z,83.60
2018-09-09T22:40:13.272Z,83.60
2018-09-09T22:42:42.035Z,83.70
2018-09-09T22:45:10.725Z,83.70
2018-09-09T22:47:39.458Z,83.80
2018-09-09T22:50:08.170Z,84.00
2018-09-09T22:52:37.032Z,84.20
2018-09-09T22:55:05.750Z,84.10
2018-09-09T22:57:35.077Z,84.60
2018-09-09T23:00:04.070Z,84.80
2018-09-09T23:02:32.784Z,85.00
2018-09-09T23:05:01.441Z,84.80
2018-09-09T23:07:30.218Z,84.50
2018-09-09T23:09:58.886Z,84.80
2018-09-09T23:12:27.650Z,84.90
2018-09-09T23:14:56.431Z,84.90
2018-09-09T23:17:25.107Z,85.00
2018-09-09T23:19:53.762Z,85.10
2018-09-09T23:22:22.475Z,85.20
2018-09-09T23:24:51.373Z,85.30
2018-09-09T23:27:20.050Z,85.40
2018-09-09T23:29:48.945Z,85.60
2018-09-09T23:32:17.644Z,85.80
2018-09-09T23:34:46.377Z,85.60
2018-09-09T23:37:15.146Z,85.80
2018-09-09T23:39:44.091Z,85.90
2018-09-09T23:42:12.794Z,85.90
2018-09-09T23:44:41.466Z,85.70
2018-09-09T23:47:10.199Z,85.80
2018-09-09T23:49:38.920Z,86.20
2018-09-09T23:52:07.643Z,86.30
2018-09-09T23:54:36.363Z,86.70
2018-09-09T23:57:05.127Z,86.70
2018-09-09T23:59:33.841Z,87.00
